Aérodrome :
LOGIN :

S'inscrire | Disclaimer

   EN    FR    IT 

 










Légende :    VFR   VFR Marginal   IFR   IFR Intensif   IFR Très Intensif
Visi : 
Plafond : 
>= 8 km
>= 3000ft
5 à 8 km
1000 à 3000 ft
1500m à 5 km
500 à 1000 ft
800 à 1500m
200 à 500 ft
< 800m
< 200 ft
Symboles :   Orages  Brouillard  Fortes neiges  Fortes précipitations  Vent > 20 kt
SIGMETs :   Divers  Orages  Givrage  Turbulence  Onde Orograph.  Cendres Volcan.







- Altitude de l'aérodrome : 268 ft
- Code IATA : BFS
- Voir les cartes d'approche


EGAA - Belfast Aldergrove

DERNIER METAR :
  • 261820Z 15014KT CAVOK 23/13 Q1012

METARs EXPIRÉS :
  • 261750Z 15016KT CAVOK 23/13 Q1012
  • 261720Z 15016KT CAVOK 23/13 Q1012
  • 261650Z 15014KT CAVOK 23/13 Q1012
  • 261620Z 15014KT 9999 FEW040 23/13 Q1012
  • 261550Z 15013KT 9999 FEW045 23/14 Q1013

TAF TAF EGAA
Valide du 26 à 18h jusqu'au 27 à 18h UTC


261701Z 2618/2718 14012KT 9999 FEW020 SCT040
TEMPO 2707/2718 7000 RADZ SHRA BKN014
PROB30
TEMPO 2707/2710 4000 +RA +TSRA BKN007
Pas de NOTAMs connus pour ce terrain.
1 SIGMET publié pour la FIR Scottish (EGPX) :
 
Orages noyés dans la masse
EGPX SIGMET 02 VALID 261800/262200 EGRR
EGPX SCOTTISH FIR EMBD TS OBS WI N5520 W00815 - N5445 W00900 - N5435 W00956 - N5659 W00916 - N5654 W00732 - N5522 W00755 - N5520 W00815 TOP FL350 MOV N 20KT NC=



MET'MAP, la Météo Aéronautique d'un coup d'oeil ! - Copyright ORBIFLY Décembre 2007 - Disclaimer

ORBIFLY MET'MAP TEAM :

Programmation & Développement : Alexandra Zaïnal
Conception & Développement : Baudouin d'Aumeries
Co-Programmation & Développement : Marc-Olivier Méhu
Soutien technique & logistique : Manuel Goepfert

Contact : metmap@orbifly.com




SOURCES & CREDITS :

   NOAA